Time;durP1;ratioP1;P1;durP2;ratioP2;P2;SDS_P1;SDS_P2;PMS_P1;PMS_P2;Temp;Humidity;BMP_temperature;BMP_pressure;BME280_temperature;BME280_humidity;BME280_pressure;Samples;Min_cycle;Max_cycle;Signal;HPM_P1;HPM_P2
2022/09/11 00:00:51;;;;;;;33.63;24.35;;;15.00;99.90;;;;;;5118079;27;20039;-81
2022/09/11 00:03:23;;;;;;;32.65;23.05;;;15.00;99.90;;;;;;5101457;27;20478;-81
2022/09/11 00:05:49;;;;;;;31.73;23.45;;;15.00;99.90;;;;;;5101613;27;20187;-81
2022/09/11 00:08:18;;;;;;;31.35;22.67;;;15.00;99.90;;;;;;5100779;27;20106;-81
2022/09/11 00:10:47;;;;;;;31.73;23.90;;;15.00;99.90;;;;;;5100600;27;20043;-81
2022/09/11 00:13:20;;;;;;;30.80;23.88;;;15.00;99.90;;;;;;5085052;27;20038;-82
2022/09/11 00:15:47;;;;;;;30.60;22.52;;;15.00;99.90;;;;;;5097112;27;20403;-81
2022/09/11 00:18:14;;;;;;;34.38;25.08;;;14.90;99.90;;;;;;5116751;27;20035;-81
2022/09/11 00:20:48;;;;;;;34.83;25.98;;;15.00;99.90;;;;;;5097989;28;20052;-81
2022/09/11 00:23:16;;;;;;;33.03;25.65;;;14.90;99.90;;;;;;5093618;28;20040;-81
2022/09/11 00:25:43;;;;;;;34.03;24.35;;;14.90;99.90;;;;;;5094146;27;20122;-81
2022/09/11 00:28:18;;;;;;;34.17;24.80;;;14.90;99.90;;;;;;5098828;28;20050;-81
2022/09/11 00:30:45;;;;;;;32.40;24.33;;;14.90;99.90;;;;;;5101317;27;20039;-81
2022/09/11 00:33:14;;;;;;;33.33;25.17;;;14.90;99.90;;;;;;5085125;27;20050;-81
2022/09/11 00:35:41;;;;;;;32.40;24.25;;;14.90;99.90;;;;;;5115617;27;20043;-81
2022/09/11 00:38:07;;;;;;;29.75;23.55;;;14.80;99.90;;;;;;5073735;27;20617;-82
2022/09/11 00:40:47;;;;;;;32.63;23.77;;;14.80;99.90;;;;;;5076991;27;20088;-82
2022/09/11 00:43:16;;;;;;;35.95;24.00;;;14.80;99.90;;;;;;5116037;27;20060;-82
2022/09/11 00:45:45;;;;;;;33.00;24.40;;;14.80;99.90;;;;;;5099285;27;20039;-82
2022/09/11 00:48:14;;;;;;;32.75;24.45;;;14.80;99.90;;;;;;5098050;27;20035;-82
2022/09/11 00:50:42;;;;;;;34.40;24.52;;;14.80;99.90;;;;;;5101184;27;20385;-82
2022/09/11 00:53:12;;;;;;;30.45;24.95;;;14.80;99.90;;;;;;5103211;27;20042;-82
2022/09/11 00:55:42;;;;;;;34.42;23.92;;;14.80;99.90;;;;;;5101548;27;20127;-82
2022/09/11 00:58:13;;;;;;;30.95;24.08;;;14.80;99.90;;;;;;5098144;27;20398;-82
2022/09/11 01:00:43;;;;;;;31.77;23.83;;;14.70;99.90;;;;;;5099389;27;20031;-82
2022/09/11 01:03:09;;;;;;;34.35;23.98;;;14.80;99.90;;;;;;5116144;27;20031;-82
2022/09/11 01:05:38;;;;;;;34.10;24.98;;;14.70;99.90;;;;;;5076841;27;20047;-82
2022/09/11 01:08:05;;;;;;;33.22;24.83;;;14.70;99.90;;;;;;5098953;27;20035;-82
2022/09/11 01:10:53;;;;;;;35.38;24.92;;;14.70;99.90;;;;;;5080636;28;20489;-81
2022/09/11 01:13:37;;;;;;;38.00;28.20;;;14.70;99.90;;;;;;5096411;27;20030;-82
2022/09/11 01:16:29;;;;;;;37.08;25.73;;;14.70;99.90;;;;;;5107897;27;20394;-82
2022/09/11 01:19:00;;;;;;;35.35;25.30;;;14.70;99.90;;;;;;5108790;28;20039;-82
2022/09/11 01:21:51;;;;;;;33.13;24.17;;;14.60;99.90;;;;;;5086646;27;20062;-81
2022/09/11 01:24:33;;;;;;;33.10;24.67;;;14.60;99.90;;;;;;5111371;27;20395;-83
2022/09/11 01:27:34;;;;;;;34.58;24.98;;;14.60;99.90;;;;;;5111774;27;20039;-82
2022/09/11 01:30:08;;;;;;;35.35;25.50;;;14.60;99.90;;;;;;5114267;27;20039;-82
2022/09/11 01:33:01;;;;;;;38.10;25.90;;;14.60;99.90;;;;;;5097412;27;20494;-82
2022/09/11 01:35:44;;;;;;;40.00;26.77;;;14.60;99.90;;;;;;5114937;27;20556;-82
2022/09/11 01:38:30;;;;;;;37.67;27.83;;;14.60;99.90;;;;;;5114166;27;20512;-82
2022/09/11 01:41:08;;;;;;;37.53;28.00;;;14.50;99.90;;;;;;5103604;27;20074;-81
2022/09/11 01:43:42;;;;;;;36.33;26.38;;;14.50;99.90;;;;;;5098504;27;20056;-81
2022/09/11 01:46:09;;;;;;;37.10;26.88;;;14.40;99.90;;;;;;5114584;27;20031;-82
2022/09/11 01:48:44;;;;;;;36.03;26.92;;;14.40;99.90;;;;;;5114712;27;20079;-82
2022/09/11 01:51:17;;;;;;;36.50;26.67;;;14.40;99.90;;;;;;5116164;27;20046;-82
2022/09/11 01:53:46;;;;;;;36.10;26.23;;;14.50;99.90;;;;;;5088227;27;20043;-81
2022/09/11 01:56:19;;;;;;;35.60;26.48;;;14.40;99.90;;;;;;5099331;27;20049;-82
2022/09/11 01:58:47;;;;;;;36.47;26.25;;;14.40;99.90;;;;;;5094410;28;20042;-82
2022/09/11 02:01:23;;;;;;;34.90;26.65;;;14.40;99.90;;;;;;5097378;27;20087;-82
2022/09/11 02:03:55;;;;;;;;;;;14.40;99.90;;;;;;5089678;27;20063;-82
2022/09/11 02:06:27;;;;;;;35.45;25.90;;;14.40;99.90;;;;;;5099089;27;20300;-82
2022/09/11 02:09:05;;;;;;;36.40;25.95;;;14.40;99.90;;;;;;5096738;27;20035;-82
2022/09/11 02:11:35;;;;;;;33.17;25.35;;;14.40;99.90;;;;;;5113767;27;20116;-81
2022/09/11 02:14:27;;;;;;;34.75;26.50;;;14.40;99.90;;;;;;5099485;27;20054;-82
2022/09/11 02:16:56;;;;;;;33.25;25.30;;;14.40;99.90;;;;;;5093861;27;20046;-83
2022/09/11 02:19:28;;;;;;;34.95;25.45;;;14.40;99.90;;;;;;5091803;28;20089;-82
2022/09/11 02:21:56;;;;;;;36.45;26.05;;;14.40;99.90;;;;;;5087662;28;20127;-82
2022/09/11 02:24:22;;;;;;;32.20;24.73;;;14.40;99.90;;;;;;5099357;27;20379;-83
2022/09/11 02:26:53;;;;;;;31.65;23.98;;;14.30;99.90;;;;;;5095424;28;20040;-82
2022/09/11 02:29:20;;;;;;;32.10;23.80;;;14.30;99.90;;;;;;5098846;28;20084;-82
2022/09/11 02:31:46;;;;;;;34.38;25.05;;;14.30;99.90;;;;;;5076997;28;20474;-82
2022/09/11 02:34:14;;;;;;;29.83;23.17;;;14.20;99.90;;;;;;5095954;28;20046;-81
2022/09/11 02:36:57;;;;;;;33.08;25.00;;;14.30;99.90;;;;;;5072028;28;20044;-82
2022/09/11 02:39:44;;;;;;;32.22;24.25;;;14.20;99.90;;;;;;5094668;28;20035;-81
2022/09/11 02:42:26;;;;;;;31.83;24.70;;;14.20;99.90;;;;;;5091496;28;20100;-82
2022/09/11 02:45:03;;;;;;;31.45;23.20;;;14.20;99.90;;;;;;5108261;28;20053;-82
2022/09/11 02:47:31;;;;;;;32.40;25.02;;;14.20;99.90;;;;;;5089995;28;20040;-82
2022/09/11 02:50:17;;;;;;;31.73;23.67;;;14.10;99.90;;;;;;5094587;28;20039;-82
2022/09/11 02:52:58;;;;;;;32.17;23.88;;;14.10;99.90;;;;;;5107056;28;20558;-82
2022/09/11 02:55:49;;;;;;;30.17;22.58;;;14.10;99.90;;;;;;5107186;28;20036;-81
2022/09/11 02:58:25;;;;;;;31.75;23.65;;;14.30;99.90;;;;;;5090891;28;20028;-82
2022/09/11 03:00:55;;;;;;;28.98;21.55;;;14.00;99.90;;;;;;5092456;28;20093;-82
2022/09/11 03:03:21;;;;;;;32.58;23.75;;;14.10;99.90;;;;;;5094983;28;20035;-82
2022/09/11 03:05:46;;;;;;;30.35;23.25;;;14.10;99.90;;;;;;5078563;28;20036;-81
2022/09/11 03:08:15;;;;;;;34.08;24.58;;;14.00;99.90;;;;;;5062224;28;20035;-82
2022/09/11 03:10:45;;;;;;;27.85;22.13;;;14.00;99.90;;;;;;5113326;28;20040;-82
2022/09/11 03:13:13;;;;;;;30.50;23.98;;;14.00;99.90;;;;;;5084244;28;20105;-82
2022/09/11 03:15:38;;;;;;;31.98;23.42;;;14.00;99.90;;;;;;5083518;28;20031;-82
2022/09/11 03:18:04;;;;;;;31.20;24.33;;;14.00;99.90;;;;;;5082721;27;20046;-83
2022/09/11 03:20:30;;;;;;;33.60;25.63;;;14.00;99.90;;;;;;5083958;27;20051;-82
2022/09/11 03:22:56;;;;;;;33.35;25.05;;;13.90;99.90;;;;;;5087166;27;20410;-82
2022/09/11 03:25:26;;;;;;;34.05;23.55;;;13.90;99.90;;;;;;5112165;27;20042;-81
2022/09/11 03:27:53;;;;;;;32.45;24.85;;;13.90;99.90;;;;;;5078134;27;20042;-82
2022/09/11 03:30:20;;;;;;;36.90;25.10;;;13.80;99.90;;;;;;5108154;27;20039;-82
2022/09/11 03:32:46;;;;;;;33.40;26.10;;;13.80;99.90;;;;;;5085098;27;20053;-82
2022/09/11 03:35:12;;;;;;;32.22;23.95;;;13.80;99.90;;;;;;5101962;27;20044;-83
2022/09/11 03:37:38;;;;;;;31.77;23.73;;;13.80;99.90;;;;;;5092234;27;20088;-82
2022/09/11 03:40:04;;;;;;;35.83;24.85;;;13.70;99.90;;;;;;5085625;27;20081;-82
2022/09/11 03:42:31;;;;;;;33.45;24.38;;;13.70;99.90;;;;;;5089085;27;20100;-82
2022/09/11 03:44:57;;;;;;;33.05;24.63;;;13.70;99.90;;;;;;5084936;27;20101;-81
2022/09/11 03:47:23;;;;;;;33.22;24.83;;;13.70;99.90;;;;;;5095108;27;20431;-82
2022/09/11 03:49:48;;;;;;;28.20;21.85;;;13.70;99.90;;;;;;5079956;27;20028;-82
2022/09/11 03:52:15;;;;;;;16.30;14.13;;;13.70;99.90;;;;;;5081141;28;20039;-81
2022/09/11 03:54:41;;;;;;;18.05;14.15;;;13.60;99.90;;;;;;5102333;27;20035;-82
2022/09/11 03:57:08;;;;;;;14.82;12.13;;;13.50;99.90;;;;;;5062440;27;20123;-82
2022/09/11 03:59:34;;;;;;;16.73;11.63;;;13.50;99.90;;;;;;5084435;27;20092;-82
2022/09/11 04:02:00;;;;;;;19.25;14.27;;;13.40;99.90;;;;;;5093259;28;20039;-82
2022/09/11 04:04:25;;;;;;;21.88;16.33;;;13.40;99.90;;;;;;5100438;27;20035;-82
2022/09/11 04:06:51;;;;;;;20.15;16.25;;;13.40;99.90;;;;;;5118663;27;20498;-82
2022/09/11 04:09:17;;;;;;;22.23;17.00;;;13.40;99.90;;;;;;5088864;28;20471;-82
2022/09/11 04:11:43;;;;;;;23.38;18.38;;;13.40;99.90;;;;;;5116128;27;20110;-82
2022/09/11 04:14:08;;;;;;;28.23;20.13;;;13.40;99.90;;;;;;5099782;27;20031;-82
2022/09/11 04:16:35;;;;;;;25.70;19.30;;;13.40;99.90;;;;;;5100717;27;20394;-82
2022/09/11 04:19:01;;;;;;;22.58;18.02;;;13.40;99.90;;;;;;5075903;27;20047;-82
2022/09/11 04:21:27;;;;;;;21.92;16.98;;;13.40;99.90;;;;;;5106728;27;20055;-82
2022/09/11 04:23:55;;;;;;;21.42;16.48;;;13.40;99.90;;;;;;5092772;27;20093;-82
2022/09/11 04:26:23;;;;;;;18.80;15.93;;;13.40;99.90;;;;;;5068093;28;20035;-82
2022/09/11 04:28:49;;;;;;;18.77;13.95;;;13.30;99.90;;;;;;5116925;27;20027;-81
2022/09/11 04:31:20;;;;;;;15.95;12.88;;;13.30;99.90;;;;;;5101517;27;20383;-83
2022/09/11 04:33:47;;;;;;;17.60;13.23;;;13.20;99.90;;;;;;5089188;27;20074;-82
2022/09/11 04:36:18;;;;;;;16.13;13.13;;;13.20;99.90;;;;;;5108050;27;20031;-81
2022/09/11 04:38:45;;;;;;;16.15;12.95;;;13.20;99.90;;;;;;5117750;27;20053;-82
2022/09/11 04:41:13;;;;;;;14.00;11.90;;;13.20;99.90;;;;;;5101809;27;20502;-83
2022/09/11 04:43:40;;;;;;;13.98;11.73;;;13.10;99.90;;;;;;5101472;27;20134;-82
2022/09/11 04:46:11;;;;;;;13.48;10.48;;;13.10;99.90;;;;;;5090442;28;20041;-82
2022/09/11 04:48:43;;;;;;;19.17;12.50;;;13.00;99.90;;;;;;5097552;27;20023;-82
2022/09/11 04:51:08;;;;;;;20.60;13.45;;;13.00;99.90;;;;;;5087185;27;20124;-82
2022/09/11 04:53:36;;;;;;;23.40;14.68;;;13.00;99.90;;;;;;5084967;27;20038;-81
2022/09/11 04:56:13;;;;;;;20.08;14.02;;;13.00;99.90;;;;;;5089635;27;20035;-81
2022/09/11 04:58:40;;;;;;;19.13;13.55;;;13.00;99.90;;;;;;5099641;27;20062;-82
2022/09/11 05:01:09;;;;;;;23.02;12.50;;;13.00;99.90;;;;;;5106666;27;20415;-82
2022/09/11 05:03:34;;;;;;;20.00;12.50;;;13.00;99.90;;;;;;5117568;27;20035;-82
2022/09/11 05:06:05;;;;;;;22.92;12.10;;;12.90;99.90;;;;;;5098845;27;20061;-82
2022/09/11 05:08:35;;;;;;;19.27;12.10;;;12.90;99.90;;;;;;5112233;27;20035;-83
2022/09/11 05:11:01;;;;;;;15.27;10.43;;;12.90;99.90;;;;;;5106821;27;20118;-82
2022/09/11 05:13:28;;;;;;;13.68;10.90;;;12.80;99.90;;;;;;5080571;28;20040;-81
2022/09/11 05:16:00;;;;;;;15.80;10.50;;;12.80;99.90;;;;;;5093492;27;20039;-82
2022/09/11 05:18:26;;;;;;;12.38;10.23;;;12.80;99.90;;;;;;5092406;28;20110;-83
2022/09/11 05:21:03;;;;;;;14.93;11.43;;;12.80;99.90;;;;;;5093397;28;20048;-81
2022/09/11 05:23:30;;;;;;;13.07;10.55;;;12.80;99.90;;;;;;5110302;28;20161;-81
2022/09/11 05:26:04;;;;;;;15.75;11.52;;;12.80;99.90;;;;;;5088542;28;20067;-81
2022/09/11 05:28:30;;;;;;;14.20;11.35;;;12.80;99.90;;;;;;5096793;28;20035;-82
2022/09/11 05:30:57;;;;;;;18.25;12.65;;;12.80;99.90;;;;;;5078665;28;20040;-81
2022/09/11 05:33:24;;;;;;;19.95;13.65;;;12.80;99.90;;;;;;5096943;28;20055;-81
2022/09/11 05:35:51;;;;;;;21.77;13.52;;;12.80;99.90;;;;;;5104819;28;20052;-83
2022/09/11 05:38:20;;;;;;;18.83;13.38;;;12.80;99.90;;;;;;5090945;28;20035;-81
2022/09/11 05:40:48;;;;;;;20.00;14.50;;;12.80;99.90;;;;;;5112672;28;20040;-82
2022/09/11 05:43:15;;;;;;;18.85;13.48;;;12.80;99.90;;;;;;5079351;28;20044;-82
2022/09/11 05:45:43;;;;;;;17.48;12.30;;;12.80;99.90;;;;;;5094648;28;20050;-81
2022/09/11 05:48:09;;;;;;;16.50;12.38;;;12.80;99.90;;;;;;5074329;28;20533;-81
2022/09/11 05:50:35;;;;;;;15.10;12.25;;;12.90;99.90;;;;;;5112629;27;20039;-81
2022/09/11 05:53:02;;;;;;;15.00;12.23;;;12.90;99.90;;;;;;5107025;28;20039;-81
2022/09/11 05:55:27;;;;;;;16.52;12.32;;;12.90;99.90;;;;;;5080313;28;20522;-82
2022/09/11 05:57:53;;;;;;;14.98;13.00;;;13.00;99.90;;;;;;5090874;28;20126;-82
2022/09/11 06:00:20;;;;;;;14.32;11.95;;;13.00;99.90;;;;;;5090547;28;20044;-81
2022/09/11 06:02:47;;;;;;;16.95;12.02;;;13.20;99.90;;;;;;5116497;27;20172;-82
2022/09/11 06:05:14;;;;;;;14.70;12.05;;;13.10;99.90;;;;;;5114111;27;20035;-81
2022/09/11 06:07:41;;;;;;;16.75;12.43;;;13.10;99.90;;;;;;5075633;27;20051;-82
2022/09/11 06:10:07;;;;;;;19.25;15.38;;;13.10;99.90;;;;;;5086856;28;20122;-82
2022/09/11 06:12:34;;;;;;;17.98;14.98;;;13.20;99.90;;;;;;5095806;28;20032;-82
2022/09/11 06:15:00;;;;;;;17.23;15.35;;;13.20;99.90;;;;;;5077393;28;20460;-83
2022/09/11 06:17:27;;;;;;;21.23;15.85;;;13.30;99.90;;;;;;5060890;28;20043;-83
2022/09/11 06:19:53;;;;;;;21.20;16.42;;;13.40;99.90;;;;;;5081994;27;20474;-82
2022/09/11 06:22:20;;;;;;;20.60;16.35;;;13.40;99.90;;;;;;5078168;28;20059;-83
2022/09/11 06:24:48;;;;;;;19.75;15.88;;;13.50;99.90;;;;;;5075625;28;20032;-83
2022/09/11 06:27:14;;;;;;;20.30;16.63;;;13.50;99.90;;;;;;5058848;28;20233;-81
2022/09/11 06:29:42;;;;;;;20.65;17.65;;;13.60;99.90;;;;;;5074332;28;20446;-80
2022/09/11 06:32:08;;;;;;;20.73;16.92;;;13.60;99.90;;;;;;5074902;28;20494;-81
2022/09/11 06:34:34;;;;;;;19.00;16.30;;;13.70;99.90;;;;;;5056590;28;20040;-80
2022/09/11 06:37:00;;;;;;;20.00;16.27;;;13.70;99.90;;;;;;5058231;28;20044;-80
2022/09/11 06:39:25;;;;;;;21.35;17.65;;;13.80;99.90;;;;;;5046731;28;20039;-79
2022/09/11 06:41:52;;;;;;;20.95;17.05;;;13.90;99.90;;;;;;5051663;28;20041;-79
2022/09/11 06:44:18;;;;;;;21.70;17.08;;;13.90;99.90;;;;;;5065804;28;20137;-80
2022/09/11 06:46:44;;;;;;;20.48;16.88;;;14.00;99.90;;;;;;5072172;28;20534;-80
2022/09/11 06:49:10;;;;;;;21.52;17.20;;;14.10;99.90;;;;;;5070797;28;20032;-81
2022/09/11 06:51:38;;;;;;;18.50;15.80;;;14.20;99.90;;;;;;5073095;28;20040;-81
2022/09/11 06:54:04;;;;;;;20.30;15.77;;;14.20;99.90;;;;;;5005416;28;20053;-81
2022/09/11 06:56:31;;;;;;;19.55;15.48;;;14.30;99.90;;;;;;5017072;28;20045;-81
2022/09/11 06:58:57;;;;;;;18.65;15.77;;;14.40;99.90;;;;;;5031571;28;20052;-82
2022/09/11 07:01:23;;;;;;;18.25;16.30;;;14.50;99.90;;;;;;5031795;28;20049;-82
2022/09/11 07:03:51;;;;;;;16.75;14.63;;;14.60;99.90;;;;;;5012012;28;20037;-81
2022/09/11 07:06:29;;;;;;;17.15;13.95;;;14.90;99.90;;;;;;5001710;28;20086;-83
2022/09/11 07:09:01;;;;;;;17.63;13.50;;;15.00;99.90;;;;;;4996828;28;20043;-81
2022/09/11 07:11:31;;;;;;;15.00;12.98;;;15.20;99.90;;;;;;5014884;28;20069;-82
2022/09/11 07:13:58;;;;;;;12.82;11.45;;;15.30;99.90;;;;;;5028210;28;20048;-81
2022/09/11 07:16:24;;;;;;;15.95;11.02;;;15.50;99.90;;;;;;4996240;28;20108;-82
2022/09/11 07:18:50;;;;;;;11.23;10.07;;;15.50;99.90;;;;;;5032471;28;20049;-82
2022/09/11 07:21:24;;;;;;;12.57;10.02;;;15.70;99.90;;;;;;5013147;28;20049;-80
2022/09/11 07:23:53;;;;;;;10.95;9.70;;;15.90;99.90;;;;;;5016852;28;20202;-82
2022/09/11 07:26:20;;;;;;;10.70;9.18;;;16.00;99.90;;;;;;5012897;28;20041;-81
2022/09/11 07:28:50;;;;;;;10.10;8.52;;;16.20;99.90;;;;;;4999430;28;20073;-81
2022/09/11 07:31:25;;;;;;;11.55;8.80;;;16.30;99.90;;;;;;5015307;28;20060;-81
2022/09/11 07:33:51;;;;;;;9.60;8.60;;;16.50;99.90;;;;;;5027853;28;20045;-82
2022/09/11 07:36:23;;;;;;;13.40;8.73;;;16.60;99.90;;;;;;5013504;28;20041;-81
2022/09/11 07:38:50;;;;;;;10.90;8.98;;;16.90;99.90;;;;;;5013390;28;20052;-83
2022/09/11 07:41:18;;;;;;;10.43;8.75;;;17.00;99.90;;;;;;5015799;28;20042;-82
2022/09/11 07:43:44;;;;;;;9.75;8.40;;;17.20;99.90;;;;;;5032788;28;20038;-82
2022/09/11 07:46:11;;;;;;;10.18;8.57;;;17.30;99.90;;;;;;5013997;28;20640;-81
2022/09/11 07:48:38;;;;;;;9.80;8.70;;;17.50;99.90;;;;;;5011055;28;20041;-84
2022/09/11 07:51:09;;;;;;;8.63;7.72;;;17.60;99.90;;;;;;4993997;28;20073;-80
2022/09/11 07:53:40;;;;;;;10.82;8.27;;;17.70;99.90;;;;;;5014552;28;20688;-80
2022/09/11 07:56:08;;;;;;;8.40;7.60;;;17.80;99.90;;;;;;5011323;28;20447;-80
2022/09/11 07:58:37;;;;;;;8.95;7.55;;;17.80;99.90;;;;;;5030708;28;20045;-80
2022/09/11 08:01:04;;;;;;;8.52;7.63;;;17.80;99.90;;;;;;5018341;28;20120;-80
2022/09/11 08:03:34;;;;;;;13.57;7.88;;;17.80;99.90;;;;;;4999906;28;20123;-80
2022/09/11 08:06:02;;;;;;;8.60;7.80;;;17.80;99.90;;;;;;5034016;28;20045;-80
2022/09/11 08:08:28;;;;;;;8.63;7.63;;;17.70;99.90;;;;;;5033504;28;20068;-79
2022/09/11 08:11:02;;;;;;;8.70;7.80;;;17.70;99.90;;;;;;5018056;28;20152;-80
2022/09/11 08:13:28;;;;;;;8.18;7.35;;;17.70;99.90;;;;;;5015353;28;20034;-80
2022/09/11 08:15:55;;;;;;;8.32;6.78;;;17.80;99.90;;;;;;5017473;28;20041;-81
2022/09/11 08:18:21;;;;;;;10.95;7.60;;;17.80;99.90;;;;;;5033805;28;20045;-80
2022/09/11 08:20:47;;;;;;;7.80;6.97;;;17.70;99.90;;;;;;5033285;28;20052;-80
2022/09/11 08:23:14;;;;;;;10.13;8.07;;;17.80;99.90;;;;;;5015365;28;20049;-80
2022/09/11 08:25:40;;;;;;;12.25;7.78;;;17.80;99.90;;;;;;5035461;28;20037;-79
2022/09/11 08:28:07;;;;;;;8.35;6.05;;;17.80;99.90;;;;;;5015740;28;20033;-79
2022/09/11 08:30:37;;;;;;;9.38;6.80;;;17.80;99.90;;;;;;5035350;28;20037;-81
2022/09/11 08:33:04;;;;;;;9.48;7.43;;;17.80;99.90;;;;;;5035631;28;20117;-81
2022/09/11 08:35:32;;;;;;;9.68;7.47;;;17.80;99.90;;;;;;5049269;28;20040;-81
2022/09/11 08:37:59;;;;;;;9.55;7.63;;;17.80;99.90;;;;;;5032669;28;20440;-81
2022/09/11 08:40:29;;;;;;;8.88;7.25;;;17.90;99.90;;;;;;5018861;28;20404;-82
2022/09/11 08:42:59;;;;;;;9.32;6.75;;;17.90;99.90;;;;;;5020214;28;20037;-81
2022/09/11 08:45:29;;;;;;;10.50;6.45;;;18.00;99.90;;;;;;5050767;28;20071;-81
2022/09/11 08:47:57;;;;;;;10.52;6.35;;;18.00;99.90;;;;;;5048112;28;20037;-80
2022/09/11 08:50:40;;;;;;;7.57;5.45;;;18.10;99.90;;;;;;5036845;28;20037;-80
2022/09/11 08:53:14;;;;;;;9.30;5.82;;;18.10;99.90;;;;;;5036951;28;20029;-81
2022/09/11 08:55:46;;;;;;;7.90;6.05;;;18.10;99.90;;;;;;5042092;28;20081;-81
2022/09/11 08:58:44;;;;;;;9.90;5.50;;;18.20;99.90;;;;;;5049794;28;20030;-82
2022/09/11 09:01:29;;;;;;;8.52;5.55;;;18.20;99.90;;;;;;5059857;28;20037;-81
2022/09/11 09:03:58;;;;;;;7.28;5.68;;;18.30;99.90;;;;;;5047757;28;20116;-80
2022/09/11 09:06:45;;;;;;;7.80;5.63;;;18.30;99.90;;;;;;5041299;28;20073;-81
2022/09/11 09:09:43;;;;;;;11.00;5.32;;;18.40;99.90;;;;;;5039750;28;20041;-82
2022/09/11 09:12:34;;;;;;;7.32;4.93;;;18.50;99.90;;;;;;5045213;28;20044;-81
2022/09/11 09:15:18;;;;;;;5.80;3.80;;;18.60;99.90;;;;;;5053463;28;20037;-81
2022/09/11 09:17:59;;;;;;;5.35;3.45;;;18.80;99.90;;;;;;5047041;28;20067;-82
2022/09/11 09:20:32;;;;;;;7.72;3.65;;;18.80;99.90;;;;;;5052713;28;20033;-82
2022/09/11 09:23:13;;;;;;;7.40;4.00;;;18.90;99.90;;;;;;5055789;28;20049;-81
2022/09/11 09:25:41;;;;;;;7.88;4.10;;;18.90;99.90;;;;;;5061607;28;20501;-81
2022/09/11 09:28:18;;;;;;;6.45;3.97;;;18.90;99.90;;;;;;5049526;28;20382;-81
2022/09/11 09:30:56;;;;;;;8.30;3.97;;;18.80;99.90;;;;;;5054075;28;20032;-81
2022/09/11 09:33:29;;;;;;;6.60;3.90;;;18.90;99.90;;;;;;5029897;28;20493;-81
2022/09/11 09:35:56;;;;;;;4.35;3.58;;;18.90;99.90;;;;;;5055315;28;20056;-82
2022/09/11 09:38:27;;;;;;;4.60;3.78;;;18.90;99.90;;;;;;5049860;28;20045;-81
2022/09/11 09:41:00;;;;;;;4.80;3.38;;;19.00;99.90;;;;;;5039870;28;20369;-82
2022/09/11 09:43:46;;;;;;;6.95;4.55;;;19.10;99.90;;;;;;5049580;28;20056;-81
2022/09/11 09:46:54;;;;;;;7.93;4.22;;;19.10;99.90;;;;;;5033863;28;20053;-81
2022/09/11 09:49:32;;;;;;;5.68;3.28;;;19.20;99.90;;;;;;4961587;28;20046;-81
2022/09/11 09:52:04;;;;;;;5.38;3.63;;;19.40;99.90;;;;;;4974607;28;20061;-81
2022/09/11 09:54:33;;;;;;;9.57;4.25;;;19.40;99.90;;;;;;5022427;28;20056;-81
2022/09/11 09:57:06;;;;;;;4.43;3.38;;;19.50;99.90;;;;;;5032475;28;20048;-81
2022/09/11 09:59:51;;;;;;;6.20;3.50;;;19.60;99.90;;;;;;5052185;28;20044;-81
2022/09/11 10:02:44;;;;;;;4.53;2.63;;;19.70;99.90;;;;;;5055290;28;20029;-81
2022/09/11 10:05:42;;;;;;;6.75;3.30;;;19.60;99.90;;;;;;5047338;28;20489;-81
2022/09/11 10:08:32;;;;;;;6.20;3.35;;;19.60;99.90;;;;;;5039429;28;20068;-81
2022/09/11 10:11:02;;;;;;;8.48;3.03;;;19.50;99.90;;;;;;5063864;28;20078;-81
2022/09/11 10:13:32;;;;;;;7.05;3.20;;;19.30;99.90;;;;;;5054371;28;20037;-81
2022/09/11 10:16:01;;;;;;;5.03;3.00;;;19.30;99.90;;;;;;5048687;28;20048;-81
2022/09/11 10:18:41;;;;;;;5.65;3.00;;;19.20;99.90;;;;;;5036082;28;20040;-81
2022/09/11 10:21:23;;;;;;;4.45;2.83;;;19.20;99.90;;;;;;5043047;28;20107;-81
2022/09/11 10:23:58;;;;;;;9.63;3.00;;;19.10;99.90;;;;;;5042243;28;20037;-81
2022/09/11 10:26:42;;;;;;;4.80;2.53;;;19.10;99.90;;;;;;5046116;28;20068;-81
2022/09/11 10:29:20;;;;;;;4.68;2.30;;;19.00;99.90;;;;;;5033556;28;20033;-81
2022/09/11 10:32:04;;;;;;;5.40;2.70;;;19.00;99.90;;;;;;5049786;28;20060;-80
2022/09/11 10:34:36;;;;;;;4.22;2.63;;;18.90;99.90;;;;;;5047138;28;20044;-81
2022/09/11 10:37:06;;;;;;;4.82;2.97;;;18.90;99.90;;;;;;5039666;28;20041;-81
2022/09/11 10:39:35;;;;;;;3.90;2.15;;;19.00;99.90;;;;;;5047584;28;20544;-81
2022/09/11 10:42:17;;;;;;;4.88;2.40;;;19.10;99.90;;;;;;5026926;28;20045;-81
2022/09/11 10:44:44;;;;;;;4.05;2.55;;;19.20;99.90;;;;;;5056016;28;20075;-81
2022/09/11 10:47:17;;;;;;;5.43;2.72;;;19.20;99.90;;;;;;5051320;28;20078;-81
2022/09/11 10:49:45;;;;;;;6.97;2.67;;;19.30;99.90;;;;;;5049308;28;20091;-81
2022/09/11 10:52:11;;;;;;;5.85;3.13;;;19.40;99.90;;;;;;5052700;28;20041;-81
2022/09/11 10:54:52;;;;;;;5.30;3.17;;;19.50;99.90;;;;;;5036597;28;20174;-82
2022/09/11 10:57:44;;;;;;;5.80;3.10;;;19.60;99.90;;;;;;5052788;28;20580;-81
2022/09/11 11:00:29;;;;;;;5.13;2.78;;;19.80;99.90;;;;;;5028259;28;20095;-81
2022/09/11 11:02:58;;;;;;;3.35;2.28;;;19.70;99.90;;;;;;5050715;28;20424;-81
2022/09/11 11:05:35;;;;;;;3.40;2.20;;;19.70;99.90;;;;;;5050768;28;20045;-81
2022/09/11 11:08:20;;;;;;;2.95;1.60;;;19.70;99.90;;;;;;5050811;28;20482;-81
2022/09/11 11:11:13;;;;;;;3.78;2.10;;;19.80;99.90;;;;;;5052806;28;20437;-81
2022/09/11 11:13:39;;;;;;;5.20;2.25;;;19.80;99.90;;;;;;5023231;28;20053;-81
2022/09/11 11:16:35;;;;;;;3.90;2.40;;;19.90;99.90;;;;;;5046095;28;20489;-81
2022/09/11 11:19:23;;;;;;;3.70;2.13;;;20.00;99.90;;;;;;5047687;28;20048;-81
2022/09/11 11:22:15;;;;;;;2.17;1.45;;;19.90;99.90;;;;;;5049042;28;20048;-81
2022/09/11 11:25:26;;;;;;;5.65;1.90;;;20.00;99.90;;;;;;5052340;28;20036;-81
2022/09/11 11:28:33;;;;;;;3.90;1.70;;;20.10;99.90;;;;;;4998375;28;20055;-81
2022/09/11 11:31:14;;;;;;;6.80;2.03;;;20.00;99.90;;;;;;5043126;28;20057;-80
2022/09/11 11:34:01;;;;;;;3.65;2.10;;;20.10;99.90;;;;;;5052410;28;20464;-81
2022/09/11 11:37:01;;;;;;;2.97;1.90;;;20.10;99.90;;;;;;5044489;28;20745;-81
2022/09/11 11:39:42;;;;;;;2.88;1.55;;;20.10;99.90;;;;;;5025549;28;20053;-81
2022/09/11 11:42:26;;;;;;;5.07;1.85;;;20.20;99.90;;;;;;5043570;28;20128;-81
2022/09/11 11:45:04;;;;;;;5.20;2.20;;;20.20;99.90;;;;;;5047367;28;20060;-81
2022/09/11 11:47:41;;;;;;;5.55;1.98;;;20.20;99.90;;;;;;5039492;28;20073;-81
2022/09/11 11:50:25;;;;;;;3.53;2.25;;;20.30;99.90;;;;;;5039281;28;20079;-81
2022/09/11 11:53:24;;;;;;;4.05;2.10;;;20.40;99.90;;;;;;5056200;28;20127;-81
2022/09/11 11:56:08;;;;;;;4.20;2.00;;;20.50;99.90;;;;;;5033680;28;20053;-81
2022/09/11 11:59:11;;;;;;;4.75;2.00;;;20.60;99.90;;;;;;5049892;28;20493;-81
2022/09/11 12:01:40;;;;;;;4.38;2.00;;;20.70;99.90;;;;;;5009107;28;20072;-81
2022/09/11 12:04:15;;;;;;;3.83;1.80;;;20.70;99.90;;;;;;5055186;28;20044;-81
2022/09/11 12:06:41;;;;;;;5.13;1.83;;;20.80;99.90;;;;;;5055395;28;20036;-81
2022/09/11 12:09:09;;;;;;;5.78;1.77;;;20.80;99.90;;;;;;5054322;28;20037;-81
2022/09/11 12:11:35;;;;;;;2.78;1.70;;;20.90;99.90;;;;;;5060365;28;20041;-81
2022/09/11 12:14:02;;;;;;;3.78;1.80;;;20.90;99.90;;;;;;5021888;28;20485;-81
2022/09/11 12:16:32;;;;;;;3.88;1.90;;;21.00;99.90;;;;;;5052907;28;20037;-81
2022/09/11 12:19:21;;;;;;;4.25;2.00;;;21.00;99.90;;;;;;5054524;28;20049;-81
2022/09/11 12:21:52;;;;;;;3.55;1.77;;;21.10;99.90;;;;;;5054654;28;20060;-81
2022/09/11 12:24:49;;;;;;;4.85;2.00;;;21.20;99.90;;;;;;5055326;28;20045;-81
2022/09/11 12:27:33;;;;;;;8.10;1.85;;;21.20;99.90;;;;;;5048212;28;20048;-81
2022/09/11 12:30:21;;;;;;;4.38;1.85;;;21.20;99.90;;;;;;5038241;28;20044;-81
2022/09/11 12:32:59;;;;;;;2.47;1.70;;;21.20;99.90;;;;;;5055419;28;20060;-81
2022/09/11 12:35:33;;;;;;;3.10;1.70;;;21.20;99.90;;;;;;5042704;28;20068;-81
2022/09/11 12:38:02;;;;;;;3.10;1.80;;;21.30;99.90;;;;;;5053613;28;20040;-82
2022/09/11 12:41:00;;;;;;;5.30;1.42;;;21.20;99.90;;;;;;5038850;28;20426;-81
2022/09/11 12:43:36;;;;;;;2.63;1.50;;;21.20;99.90;;;;;;5026843;28;20055;-81
2022/09/11 12:46:26;;;;;;;3.25;1.50;;;21.30;99.90;;;;;;5045379;28;20038;-81
2022/09/11 12:48:56;;;;;;;3.90;1.70;;;21.20;99.90;;;;;;5016436;28;20044;-81
2022/09/11 12:51:32;;;;;;;3.03;1.35;;;21.30;99.90;;;;;;5031057;28;20047;-81
2022/09/11 12:54:01;;;;;;;3.70;1.30;;;21.30;99.90;;;;;;5035696;28;20137;-82
2022/09/11 12:56:29;;;;;;;2.30;1.23;;;21.40;99.90;;;;;;5037822;28;20044;-81
2022/09/11 12:59:08;;;;;;;1.98;1.17;;;21.30;99.90;;;;;;5037793;28;20128;-81
2022/09/11 13:01:40;;;;;;;1.88;1.33;;;21.40;99.90;;;;;;5027761;28;20048;-81
2022/09/11 13:04:19;;;;;;;4.65;1.38;;;21.50;99.90;;;;;;5045422;28;20043;-81